Terminal Aerodrome Forecast
Issued by NWS

Home | Current Version | Previous Version | Text Only | Print | Product List | Glossary On
Versions: 1 2 3 4 5 6 7 8 9 10 11 12 13 14 15 16 17 18 19
162
FTUS43 KSGF 192320
TAFBBG
TAF
KBBG 192320Z 2000/2024 16008KT P6SM FEW060 SCT250
     FM200300 16010G15KT P6SM FEW250
     FM201500 19012G18KT P6SM FEW250=

USA.gov is the U.S. government's official web portal to all federal, state and local government web resources and services.